createdAt,value
2022-08-14T00:04:02.104Z,20.71
2022-08-14T00:09:28.099Z,20.62
2022-08-14T00:14:37.498Z,20.56
2022-08-14T00:19:44.415Z,20.47
2022-08-14T00:24:52.336Z,20.44
2022-08-14T00:29:58.323Z,20.36
2022-08-14T00:35:06.679Z,20.28
2022-08-14T00:40:33.573Z,20.20
2022-08-14T00:45:42.057Z,20.17
2022-08-14T00:50:48.464Z,20.17
2022-08-14T00:55:56.597Z,20.17
2022-08-14T01:01:08.153Z,20.13
2022-08-14T01:06:18.471Z,20.11
2022-08-14T01:11:25.413Z,20.12
2022-08-14T01:16:38.029Z,20.12
2022-08-14T01:21:47.342Z,20.08
2022-08-14T01:27:00.737Z,20.05
2022-08-14T01:32:10.579Z,20.06
2022-08-14T01:37:16.586Z,20.05
2022-08-14T01:42:31.840Z,20.03
2022-08-14T01:47:42.022Z,19.97
2022-08-14T01:52:59.174Z,19.87
2022-08-14T01:58:19.427Z,19.76
2022-08-14T02:03:30.861Z,19.73
2022-08-14T02:08:38.216Z,19.70
2022-08-14T02:14:07.054Z,19.65
2022-08-14T02:19:16.546Z,19.65
2022-08-14T02:24:39.725Z,19.70
2022-08-14T02:29:59.560Z,19.68
2022-08-14T02:35:13.723Z,19.67
2022-08-14T02:40:32.452Z,19.67
2022-08-14T02:45:44.341Z,19.62
2022-08-14T02:50:51.630Z,19.51
2022-08-14T02:56:03.235Z,19.43
2022-08-14T03:01:18.337Z,19.42
2022-08-14T03:06:48.887Z,19.47
2022-08-14T03:11:52.253Z,19.49
2022-08-14T03:16:59.511Z,19.47
2022-08-14T03:22:09.379Z,19.45
2022-08-14T03:27:26.588Z,19.49
2022-08-14T03:32:43.764Z,19.52
2022-08-14T03:39:16.158Z,19.51
2022-08-14T03:43:18.771Z,19.51
2022-08-14T03:48:30.077Z,19.52
2022-08-14T03:53:38.512Z,19.53
2022-08-14T03:58:46.269Z,19.57
2022-08-14T04:03:57.714Z,19.60
2022-08-14T04:09:04.345Z,19.76
2022-08-14T04:14:15.184Z,19.92
2022-08-14T04:19:24.036Z,20.07
2022-08-14T04:24:30.819Z,20.18
2022-08-14T04:29:45.346Z,20.35
2022-08-14T04:34:52.188Z,20.43
2022-08-14T04:40:17.510Z,20.49
2022-08-14T04:45:24.985Z,20.59
2022-08-14T04:50:43.475Z,20.56
2022-08-14T04:55:51.997Z,20.59
2022-08-14T05:00:59.891Z,20.60
2022-08-14T05:06:07.808Z,20.68
2022-08-14T05:11:36.734Z,20.69
2022-08-14T05:16:46.607Z,20.61
2022-08-14T05:22:15.952Z,20.61
2022-08-14T05:27:24.118Z,21.78
2022-08-14T05:32:30.234Z,25.08
2022-08-14T05:37:36.070Z,27.40
2022-08-14T05:42:41.973Z,28.98
2022-08-14T05:47:52.742Z,30.12
2022-08-14T05:52:59.625Z,29.33
2022-08-14T05:58:08.409Z,28.42
2022-08-14T06:03:16.832Z,27.26
2022-08-14T06:08:41.329Z,26.28
2022-08-14T06:13:47.983Z,25.49
2022-08-14T06:18:54.812Z,25.43
2022-08-14T06:24:10.599Z,25.19
2022-08-14T06:29:25.197Z,24.85
2022-08-14T06:35:03.922Z,26.41
2022-08-14T06:39:57.298Z,27.46
2022-08-14T06:45:04.078Z,26.61
2022-08-14T06:50:14.388Z,26.87
2022-08-14T06:55:25.934Z,27.06
2022-08-14T07:00:34.476Z,26.83
2022-08-14T07:05:55.886Z,27.02
2022-08-14T07:11:04.666Z,26.51
2022-08-14T07:16:13.106Z,26.57
2022-08-14T07:21:20.021Z,27.63
2022-08-14T07:26:25.868Z,29.89
2022-08-14T07:31:35.999Z,30.81
2022-08-14T07:36:53.745Z,32.52
2022-08-14T07:42:04.782Z,34.83
2022-08-14T07:47:10.927Z,35.88
2022-08-14T07:52:22.025Z,35.60
2022-08-14T07:57:28.561Z,35.62
2022-08-14T08:02:35.401Z,34.61
2022-08-14T08:07:48.094Z,34.59
2022-08-14T08:12:56.997Z,36.71
2022-08-14T08:18:04.944Z,37.60
2022-08-14T08:23:12.337Z,38.38
2022-08-14T08:28:28.109Z,38.88
2022-08-14T08:33:37.232Z,36.45
2022-08-14T08:39:18.620Z,34.45
2022-08-14T08:44:31.173Z,34.25
2022-08-14T08:49:48.722Z,33.11
2022-08-14T08:55:06.567Z,32.19
2022-08-14T09:00:25.477Z,32.10
2022-08-14T09:05:34.354Z,31.08
2022-08-14T09:10:40.210Z,30.31
2022-08-14T09:15:49.850Z,30.49
2022-08-14T09:20:58.572Z,31.42
2022-08-14T09:26:05.157Z,33.35
2022-08-14T09:31:43.090Z,33.17
2022-08-14T09:37:17.265Z,32.06
2022-08-14T09:42:50.207Z,31.62
2022-08-14T09:47:58.492Z,31.10
2022-08-14T09:53:10.486Z,31.13
2022-08-14T09:58:24.672Z,31.29
2022-08-14T10:03:36.311Z,31.37
2022-08-14T10:08:50.906Z,31.32
2022-08-14T10:14:02.466Z,32.42
2022-08-14T10:19:10.746Z,34.11
2022-08-14T10:24:36.435Z,34.56
2022-08-14T10:29:47.690Z,33.74
2022-08-14T10:35:04.023Z,33.01
2022-08-14T10:40:37.789Z,33.50
2022-08-14T10:45:46.370Z,33.46
2022-08-14T10:50:59.804Z,33.23
2022-08-14T10:56:22.025Z,32.98
2022-08-14T11:01:43.141Z,33.82
2022-08-14T11:06:56.717Z,34.79
2022-08-14T11:12:34.865Z,34.42
2022-08-14T11:17:31.752Z,34.39
2022-08-14T11:23:02.913Z,34.34
2022-08-14T11:28:11.075Z,33.15
2022-08-14T11:33:25.467Z,33.37
2022-08-14T11:38:38.133Z,33.17
2022-08-14T11:43:58.243Z,32.54
2022-08-14T11:49:06.674Z,32.26
2022-08-14T11:54:15.455Z,32.21
2022-08-14T11:59:30.934Z,32.27
2022-08-14T12:04:50.776Z,31.44
2022-08-14T12:09:58.704Z,31.33
2022-08-14T12:15:07.131Z,31.23
2022-08-14T12:20:14.961Z,31.01
2022-08-14T12:25:45.202Z,30.69
2022-08-14T12:31:20.473Z,30.16
2022-08-14T12:36:31.078Z,29.87
2022-08-14T12:41:38.258Z,29.75
2022-08-14T12:46:46.856Z,29.73
2022-08-14T12:52:00.053Z,29.79
2022-08-14T12:57:08.459Z,30.03
2022-08-14T13:02:25.991Z,30.23
2022-08-14T13:07:33.297Z,30.47
2022-08-14T13:12:56.797Z,30.38
2022-08-14T13:18:08.479Z,30.58
2022-08-14T13:23:14.878Z,30.82
2022-08-14T13:28:33.140Z,30.90
2022-08-14T13:33:41.357Z,30.82
2022-08-14T13:38:50.183Z,30.82
2022-08-14T13:44:00.026Z,30.65
2022-08-14T13:49:12.036Z,30.60
2022-08-14T13:54:23.150Z,30.75
2022-08-14T13:59:37.784Z,30.97
2022-08-14T14:04:49.510Z,31.38
2022-08-14T14:09:58.608Z,31.78
2022-08-14T14:15:07.064Z,31.94
2022-08-14T14:20:35.755Z,31.88
2022-08-14T14:25:51.454Z,31.73
2022-08-14T14:31:06.128Z,31.63
2022-08-14T14:36:20.936Z,31.60
2022-08-14T14:41:37.363Z,31.46
2022-08-14T14:46:51.016Z,31.41
2022-08-14T14:51:59.066Z,31.20
2022-08-14T14:57:09.394Z,31.05
2022-08-14T15:02:33.331Z,30.71
2022-08-14T15:07:40.235Z,30.28
2022-08-14T15:12:57.924Z,30.06
2022-08-14T15:18:36.571Z,29.76
2022-08-14T15:23:44.348Z,29.50
2022-08-14T15:29:03.088Z,29.22
2022-08-14T15:34:45.551Z,29.00
2022-08-14T15:39:38.400Z,28.99
2022-08-14T15:44:58.498Z,28.98
2022-08-14T15:50:09.569Z,28.89
2022-08-14T15:55:16.721Z,28.92
2022-08-14T16:00:44.135Z,28.89
2022-08-14T16:05:55.750Z,28.80
2022-08-14T16:11:05.137Z,28.67
2022-08-14T16:16:49.604Z,28.48
2022-08-14T16:22:02.213Z,28.27
2022-08-14T16:27:11.050Z,27.91
2022-08-14T16:32:35.745Z,27.58
2022-08-14T16:37:43.774Z,27.23
2022-08-14T16:43:04.146Z,26.88
2022-08-14T16:48:57.107Z,26.63
2022-08-14T16:53:44.682Z,26.32
2022-08-14T16:59:09.499Z,26.14
2022-08-14T17:04:24.670Z,26.01
2022-08-14T17:09:35.460Z,25.95
2022-08-14T17:14:54.539Z,25.92
2022-08-14T17:20:33.889Z,25.89
2022-08-14T17:25:36.395Z,25.77
2022-08-14T17:30:54.487Z,25.61
2022-08-14T17:36:20.867Z,25.45
2022-08-14T17:41:36.050Z,25.33
2022-08-14T17:46:50.357Z,25.17
2022-08-14T17:52:16.977Z,25.05
2022-08-14T17:57:28.458Z,24.94
2022-08-14T18:02:35.375Z,24.79
2022-08-14T18:07:59.571Z,24.55
2022-08-14T18:13:08.027Z,24.35
2022-08-14T18:18:16.701Z,24.20
2022-08-14T18:23:23.030Z,22.65
2022-08-14T18:28:51.257Z,20.77
2022-08-14T18:34:06.171Z,20.01
2022-08-14T18:39:28.288Z,19.85
2022-08-14T18:45:15.447Z,19.83
2022-08-14T18:50:27.948Z,19.92
2022-08-14T18:56:02.127Z,20.04
2022-08-14T19:01:24.549Z,20.14
2022-08-14T19:06:44.698Z,20.14
2022-08-14T19:11:51.544Z,20.14
2022-08-14T19:16:58.182Z,20.22
2022-08-14T19:22:12.338Z,20.31
2022-08-14T19:27:23.510Z,20.40
2022-08-14T19:32:40.313Z,20.44
2022-08-14T19:37:52.503Z,20.47
2022-08-14T19:43:00.806Z,20.46
2022-08-14T19:48:13.283Z,20.44
2022-08-14T19:53:20.188Z,20.42
2022-08-14T19:58:55.137Z,20.42
2022-08-14T20:04:06.650Z,20.35
2022-08-14T20:11:08.565Z,20.31
2022-08-14T20:14:39.714Z,20.30
2022-08-14T20:19:58.088Z,20.27
2022-08-14T20:25:18.358Z,20.22
2022-08-14T20:30:34.019Z,20.13
2022-08-14T20:35:51.599Z,20.07
2022-08-14T20:41:00.007Z,20.00
2022-08-14T20:46:14.809Z,19.94
2022-08-14T20:51:26.352Z,19.89
2022-08-14T20:56:44.630Z,19.85
2022-08-14T21:01:55.366Z,19.80
2022-08-14T21:07:24.812Z,19.79
2022-08-14T21:12:34.960Z,19.79
2022-08-14T21:17:43.136Z,19.83
2022-08-14T21:22:49.511Z,19.81
2022-08-14T21:27:57.482Z,19.75
2022-08-14T21:33:05.326Z,19.71
2022-08-14T21:38:17.982Z,19.66
2022-08-14T21:43:26.999Z,19.64
2022-08-14T21:48:36.535Z,19.74
2022-08-14T21:53:54.125Z,19.79
2022-08-14T21:59:09.079Z,19.82
2022-08-14T22:04:33.201Z,19.87
2022-08-14T22:09:42.752Z,19.91
2022-08-14T22:14:49.128Z,19.94
2022-08-14T22:19:57.049Z,19.96
2022-08-14T22:25:03.887Z,20.03
2022-08-14T22:30:15.264Z,20.04
2022-08-14T22:35:25.133Z,19.93
2022-08-14T22:41:01.920Z,19.80
2022-08-14T22:45:57.810Z,19.73
2022-08-14T22:51:08.464Z,19.65
2022-08-14T22:56:21.858Z,19.60
2022-08-14T23:01:57.274Z,19.60
2022-08-14T23:07:04.707Z,19.60
2022-08-14T23:12:27.910Z,19.66
2022-08-14T23:17:40.347Z,19.71
2022-08-14T23:22:47.993Z,19.76
2022-08-14T23:28:03.186Z,19.70
2022-08-14T23:33:16.372Z,19.72
2022-08-14T23:38:30.494Z,19.69
2022-08-14T23:43:39.065Z,19.64
2022-08-14T23:48:46.635Z,19.64
2022-08-14T23:53:53.383Z,19.65
2022-08-14T23:59:01.113Z,19.63
